RYR85W LYTV-LIEO
Flight info
| Callsign | RYR85W |
|---|---|
| Flight time | 1h 25m |
| Altitude | 36000 |
| Route | LASTI DCT PINUK W36 CRAYE DCT BAR DCT SOR DCT ROXAN M603 ATNET |
| Aircraft | B738/M-SDE2E3FGHIRWXY/LB1 |
Departure
| Time | 2026-04-27 10:00 |
|---|---|
| Airport | Tivat Airport (LYTV) |
Arrival
| Time | 2026-04-27 11:25 |
|---|---|
| Airport | Olbia Costa Smeralda Airport (LIEO) |
| Time | Latitude | Longitude | Altitude | Speed | Heading |
|---|---|---|---|---|---|
| 2026-04-27 09:46 | 42.41162 | 18.71748 | 28 ft | 0 kts | 173° |
| 2026-04-27 09:56 | 42.41161 | 18.71748 | 28 ft | 1 kts | 173° |
| 2026-04-27 09:56 | 42.41102 | 18.71769 | 28 ft | 17 kts | 144° |
| 2026-04-27 09:56 | 42.40995 | 18.71848 | 28 ft | 14 kts | 217° |
| 2026-04-27 09:57 | 42.40885 | 18.71837 | 28 ft | 24 kts | 140° |
| 2026-04-27 09:57 | 42.40725 | 18.72025 | 28 ft | 36 kts | 139° |
| 2026-04-27 09:57 | 42.40515 | 18.72270 | 28 ft | 40 kts | 136° |
| 2026-04-27 09:57 | 42.40316 | 18.72503 | 28 ft | 36 kts | 141° |
| 2026-04-27 09:58 | 42.40131 | 18.72714 | 28 ft | 33 kts | 139° |
| 2026-04-27 09:58 | 42.39964 | 18.72915 | 28 ft | 31 kts | 139° |
| 2026-04-27 09:58 | 42.39802 | 18.73110 | 28 ft | 29 kts | 139° |
| 2026-04-27 09:58 | 42.39670 | 18.73265 | 28 ft | 19 kts | 130° |
| 2026-04-27 09:59 | 42.39608 | 18.73310 | 28 ft | 7 kts | 237° |
| 2026-04-27 09:59 | 42.39645 | 18.73274 | 28 ft | 15 kts | 342° |
| 2026-04-27 09:59 | 42.39912 | 18.72979 | 28 ft | 89 kts | 319° |
| 2026-04-27 09:59 | 42.40568 | 18.72202 | 32 ft | 159 kts | 318° |
| 2026-04-27 10:00 | 42.41443 | 18.71165 | 653 ft | 170 kts | 317° |
| 2026-04-27 10:00 | 42.42139 | 18.69912 | 1686 ft | 167 kts | 287° |
| 2026-04-27 10:00 | 42.42146 | 18.68368 | 2382 ft | 171 kts | 251° |
| 2026-04-27 10:00 | 42.41464 | 18.67045 | 3060 ft | 174 kts | 224° |
| 2026-04-27 10:01 | 42.40495 | 18.66049 | 3770 ft | 176 kts | 217° |
| 2026-04-27 10:01 | 42.39438 | 18.65152 | 4369 ft | 187 kts | 202° |
| 2026-04-27 10:01 | 42.38098 | 18.64693 | 4704 ft | 212 kts | 186° |
| 2026-04-27 10:01 | 42.36547 | 18.64508 | 4998 ft | 236 kts | 185° |
| 2026-04-27 10:02 | 42.34842 | 18.64317 | 5395 ft | 256 kts | 184° |
| 2026-04-27 10:02 | 42.33012 | 18.64117 | 6006 ft | 269 kts | 184° |
| 2026-04-27 10:02 | 42.31126 | 18.63910 | 6829 ft | 274 kts | 184° |
| 2026-04-27 10:02 | 42.29211 | 18.63698 | 7673 ft | 278 kts | 184° |
| 2026-04-27 10:03 | 42.27271 | 18.63485 | 8512 ft | 282 kts | 184° |
| 2026-04-27 10:03 | 42.25304 | 18.63268 | 9335 ft | 285 kts | 185° |
| 2026-04-27 10:03 | 42.23319 | 18.63049 | 10143 ft | 289 kts | 185° |
| 2026-04-27 10:03 | 42.21293 | 18.62825 | 10866 ft | 296 kts | 184° |
| 2026-04-27 10:04 | 42.19181 | 18.62591 | 11256 ft | 315 kts | 185° |
| 2026-04-27 10:04 | 42.16927 | 18.62338 | 11586 ft | 334 kts | 185° |
| 2026-04-27 10:04 | 42.14568 | 18.62075 | 12089 ft | 346 kts | 184° |
| 2026-04-27 10:04 | 42.12146 | 18.61807 | 12775 ft | 351 kts | 184° |
| 2026-04-27 10:05 | 42.09693 | 18.61536 | 13489 ft | 356 kts | 184° |
| 2026-04-27 10:05 | 42.07215 | 18.61262 | 14196 ft | 360 kts | 184° |
| 2026-04-27 10:05 | 42.04707 | 18.60986 | 14886 ft | 364 kts | 185° |
| 2026-04-27 10:05 | 42.02157 | 18.60706 | 15574 ft | 368 kts | 185° |
| 2026-04-27 10:06 | 41.99595 | 18.60425 | 16215 ft | 372 kts | 185° |
| 2026-04-27 10:06 | 41.96998 | 18.60140 | 16863 ft | 376 kts | 185° |
| 2026-04-27 10:06 | 41.94413 | 18.59857 | 17501 ft | 379 kts | 185° |
| 2026-04-27 10:06 | 41.91766 | 18.59566 | 18096 ft | 384 kts | 185° |
| 2026-04-27 10:07 | 41.89097 | 18.59144 | 18700 ft | 387 kts | 192° |
| 2026-04-27 10:07 | 41.86557 | 18.57939 | 19275 ft | 390 kts | 207° |
| 2026-04-27 10:07 | 41.84278 | 18.55956 | 19856 ft | 392 kts | 218° |
| 2026-04-27 10:07 | 41.82229 | 18.53523 | 20423 ft | 395 kts | 225° |
| 2026-04-27 10:08 | 41.80299 | 18.50881 | 20978 ft | 398 kts | 226° |
| 2026-04-27 10:08 | 41.78312 | 18.48249 | 21518 ft | 402 kts | 225° |
| 2026-04-27 10:08 | 41.76295 | 18.45639 | 22042 ft | 405 kts | 225° |
| 2026-04-27 10:08 | 41.74265 | 18.43015 | 22553 ft | 408 kts | 225° |
| 2026-04-27 10:09 | 41.72206 | 18.40369 | 23048 ft | 411 kts | 224° |
| 2026-04-27 10:09 | 41.70128 | 18.37739 | 23531 ft | 414 kts | 224° |
| 2026-04-27 10:09 | 41.68019 | 18.35083 | 24004 ft | 417 kts | 224° |
| 2026-04-27 10:09 | 41.65899 | 18.32419 | 24470 ft | 419 kts | 224° |
| 2026-04-27 10:10 | 41.63764 | 18.29742 | 24934 ft | 422 kts | 224° |
| 2026-04-27 10:10 | 41.61679 | 18.27130 | 25371 ft | 424 kts | 224° |
| 2026-04-27 10:10 | 41.59454 | 18.24345 | 25820 ft | 426 kts | 224° |
| 2026-04-27 10:10 | 41.57280 | 18.21626 | 26241 ft | 428 kts | 225° |
| 2026-04-27 10:11 | 41.55096 | 18.18896 | 26650 ft | 431 kts | 225° |
| 2026-04-27 10:11 | 41.52967 | 18.16155 | 27042 ft | 432 kts | 229° |
| 2026-04-27 10:11 | 41.51103 | 18.13018 | 27424 ft | 432 kts | 238° |
| 2026-04-27 10:11 | 41.49637 | 18.09525 | 27811 ft | 431 kts | 246° |
| 2026-04-27 10:12 | 41.48468 | 18.05845 | 28193 ft | 432 kts | 250° |
| 2026-04-27 10:12 | 41.47437 | 18.02072 | 28537 ft | 434 kts | 252° |
| 2026-04-27 10:12 | 41.46455 | 17.98259 | 28883 ft | 435 kts | 252° |
| 2026-04-27 10:12 | 41.45465 | 17.94435 | 29241 ft | 437 kts | 252° |
| 2026-04-27 10:13 | 41.44467 | 17.90603 | 29580 ft | 438 kts | 252° |
| 2026-04-27 10:13 | 41.43463 | 17.86764 | 29925 ft | 439 kts | 252° |
| 2026-04-27 10:13 | 41.42458 | 17.82936 | 30389 ft | 436 kts | 252° |
| 2026-04-27 10:13 | 41.41455 | 17.79125 | 30872 ft | 433 kts | 252° |
| 2026-04-27 10:14 | 41.40456 | 17.75336 | 31284 ft | 432 kts | 252° |
| 2026-04-27 10:14 | 41.39460 | 17.71568 | 31683 ft | 431 kts | 252° |
| 2026-04-27 10:14 | 41.38490 | 17.67844 | 32067 ft | 430 kts | 253° |
| 2026-04-27 10:14 | 41.37528 | 17.64088 | 32482 ft | 427 kts | 253° |
| 2026-04-27 10:15 | 41.36562 | 17.60356 | 32887 ft | 426 kts | 253° |
| 2026-04-27 10:15 | 41.35590 | 17.56638 | 33259 ft | 424 kts | 253° |
| 2026-04-27 10:15 | 41.34621 | 17.52946 | 33618 ft | 423 kts | 252° |
| 2026-04-27 10:15 | 41.33641 | 17.49234 | 33961 ft | 422 kts | 252° |
| 2026-04-27 10:16 | 41.32670 | 17.45562 | 34318 ft | 421 kts | 252° |
| 2026-04-27 10:16 | 41.31706 | 17.41926 | 34610 ft | 421 kts | 252° |
| 2026-04-27 10:16 | 41.30719 | 17.38209 | 34929 ft | 420 kts | 252° |
| 2026-04-27 10:16 | 41.29760 | 17.34608 | 35249 ft | 419 kts | 252° |
| 2026-04-27 10:17 | 41.28787 | 17.30957 | 35559 ft | 418 kts | 252° |
| 2026-04-27 10:17 | 41.27814 | 17.27312 | 35826 ft | 418 kts | 252° |
| 2026-04-27 10:17 | 41.26853 | 17.23718 | 36113 ft | 418 kts | 252° |
| 2026-04-27 10:17 | 41.25874 | 17.20063 | 36161 ft | 421 kts | 252° |
| 2026-04-27 10:18 | 41.23985 | 17.12899 | 36165 ft | 421 kts | 252° |
| 2026-04-27 10:18 | 41.22030 | 17.05609 | 36166 ft | 418 kts | 252° |
| 2026-04-27 10:19 | 41.20055 | 16.98334 | 36168 ft | 418 kts | 252° |
| 2026-04-27 10:19 | 41.18076 | 16.91071 | 36169 ft | 419 kts | 252° |
| 2026-04-27 10:20 | 41.16093 | 16.83807 | 36171 ft | 418 kts | 252° |
| 2026-04-27 10:20 | 41.14127 | 16.76546 | 36171 ft | 418 kts | 253° |
| 2026-04-27 10:21 | 41.12488 | 16.69139 | 36171 ft | 418 kts | 256° |
| 2026-04-27 10:21 | 41.10882 | 16.61739 | 36171 ft | 418 kts | 255° |
| 2026-04-27 10:22 | 41.09254 | 16.54354 | 36171 ft | 418 kts | 255° |
| 2026-04-27 10:22 | 41.07610 | 16.46957 | 36171 ft | 418 kts | 255° |
| 2026-04-27 10:23 | 41.05973 | 16.39632 | 36171 ft | 418 kts | 255° |
| 2026-04-27 10:23 | 41.04330 | 16.32246 | 36172 ft | 418 kts | 256° |
| 2026-04-27 10:24 | 41.02728 | 16.24855 | 36167 ft | 418 kts | 255° |
| 2026-04-27 10:24 | 41.01097 | 16.17472 | 36165 ft | 419 kts | 255° |
| 2026-04-27 10:25 | 40.99445 | 16.10069 | 36163 ft | 419 kts | 255° |
| 2026-04-27 10:25 | 40.97787 | 16.02683 | 36162 ft | 419 kts | 255° |
| 2026-04-27 10:26 | 40.96121 | 15.95299 | 36161 ft | 419 kts | 255° |
| 2026-04-27 10:26 | 40.94446 | 15.87901 | 36160 ft | 420 kts | 255° |
| 2026-04-27 10:27 | 40.92768 | 15.80516 | 36159 ft | 420 kts | 255° |
| 2026-04-27 10:27 | 40.91081 | 15.73117 | 36167 ft | 419 kts | 255° |
| 2026-04-27 10:28 | 40.89393 | 15.65737 | 36188 ft | 420 kts | 255° |
| 2026-04-27 10:28 | 40.87697 | 15.58350 | 36198 ft | 420 kts | 255° |
| 2026-04-27 10:29 | 40.85997 | 15.50968 | 36205 ft | 420 kts | 255° |
| 2026-04-27 10:29 | 40.84293 | 15.43592 | 36205 ft | 420 kts | 254° |
| 2026-04-27 10:30 | 40.82587 | 15.36230 | 36207 ft | 420 kts | 254° |
| 2026-04-27 10:30 | 40.80897 | 15.28964 | 36206 ft | 420 kts | 254° |
| 2026-04-27 10:31 | 40.79199 | 15.21685 | 36202 ft | 420 kts | 254° |
| 2026-04-27 10:31 | 40.77488 | 15.14372 | 36199 ft | 420 kts | 254° |
| 2026-04-27 10:32 | 40.75789 | 15.07137 | 36191 ft | 420 kts | 254° |
| 2026-04-27 10:32 | 40.74054 | 14.99770 | 36184 ft | 421 kts | 254° |
| 2026-04-27 10:33 | 40.72604 | 14.93632 | 36178 ft | 421 kts | 254° |
| 2026-04-27 10:33 | 40.70638 | 14.85333 | 36174 ft | 421 kts | 254° |
| 2026-04-27 10:34 | 40.68887 | 14.77967 | 36174 ft | 421 kts | 254° |
| 2026-04-27 10:34 | 40.67156 | 14.70595 | 36175 ft | 421 kts | 254° |
| 2026-04-27 10:35 | 40.65407 | 14.63225 | 36176 ft | 422 kts | 254° |
| 2026-04-27 10:35 | 40.63889 | 14.56931 | 36177 ft | 422 kts | 253° |
| 2026-04-27 10:36 | 40.62106 | 14.49575 | 36177 ft | 422 kts | 253° |
| 2026-04-27 10:36 | 40.60314 | 14.42202 | 36173 ft | 423 kts | 253° |
| 2026-04-27 10:37 | 40.58995 | 14.36015 | 36172 ft | 422 kts | 261° |
| 2026-04-27 10:37 | 40.58774 | 14.28343 | 36174 ft | 421 kts | 274° |
| 2026-04-27 10:38 | 40.59369 | 14.20682 | 36173 ft | 422 kts | 277° |
| 2026-04-27 10:38 | 40.60058 | 14.13016 | 36173 ft | 421 kts | 277° |
| 2026-04-27 10:39 | 40.60731 | 14.05443 | 36174 ft | 421 kts | 277° |
| 2026-04-27 10:39 | 40.61413 | 13.97700 | 36177 ft | 422 kts | 277° |
| 2026-04-27 10:40 | 40.62083 | 13.90024 | 36178 ft | 423 kts | 277° |
| 2026-04-27 10:40 | 40.62804 | 13.82345 | 36175 ft | 422 kts | 277° |
| 2026-04-27 10:41 | 40.63511 | 13.74675 | 36175 ft | 422 kts | 277° |
| 2026-04-27 10:41 | 40.64196 | 13.67004 | 36175 ft | 421 kts | 277° |
| 2026-04-27 10:42 | 40.64864 | 13.59395 | 36176 ft | 421 kts | 277° |
| 2026-04-27 10:42 | 40.65529 | 13.51733 | 36176 ft | 421 kts | 277° |
| 2026-04-27 10:43 | 40.66187 | 13.44068 | 36177 ft | 421 kts | 277° |
| 2026-04-27 10:43 | 40.66841 | 13.36389 | 36178 ft | 421 kts | 276° |
| 2026-04-27 10:44 | 40.67487 | 13.28724 | 36179 ft | 421 kts | 276° |
| 2026-04-27 10:44 | 40.68129 | 13.21058 | 36179 ft | 421 kts | 276° |
| 2026-04-27 10:45 | 40.68765 | 13.13386 | 36180 ft | 421 kts | 276° |
| 2026-04-27 10:45 | 40.69393 | 13.05760 | 36182 ft | 422 kts | 276° |
| 2026-04-27 10:46 | 40.70022 | 12.98071 | 36182 ft | 422 kts | 276° |
| 2026-04-27 10:46 | 40.70646 | 12.90366 | 36181 ft | 422 kts | 276° |
| 2026-04-27 10:47 | 40.71264 | 12.82674 | 36173 ft | 422 kts | 276° |
| 2026-04-27 10:47 | 40.71877 | 12.74980 | 36171 ft | 423 kts | 276° |
| 2026-04-27 10:48 | 40.72486 | 12.67259 | 36171 ft | 423 kts | 276° |
| 2026-04-27 10:48 | 40.73090 | 12.59545 | 36171 ft | 423 kts | 276° |
| 2026-04-27 10:49 | 40.73689 | 12.51825 | 36171 ft | 423 kts | 276° |
| 2026-04-27 10:49 | 40.74279 | 12.44161 | 36170 ft | 423 kts | 276° |
| 2026-04-27 10:50 | 40.74867 | 12.36443 | 36171 ft | 423 kts | 276° |
| 2026-04-27 10:50 | 40.75451 | 12.28710 | 36171 ft | 424 kts | 276° |
| 2026-04-27 10:51 | 40.76031 | 12.20974 | 36171 ft | 424 kts | 276° |
| 2026-04-27 10:51 | 40.76605 | 12.13230 | 36171 ft | 424 kts | 276° |
| 2026-04-27 10:52 | 40.77175 | 12.05482 | 36171 ft | 424 kts | 276° |
| 2026-04-27 10:52 | 40.77739 | 11.97742 | 36171 ft | 424 kts | 276° |
| 2026-04-27 10:53 | 40.78576 | 11.86105 | 36171 ft | 425 kts | 275° |
| 2026-04-27 10:54 | 40.79128 | 11.78350 | 36170 ft | 425 kts | 275° |
| 2026-04-27 10:54 | 40.79671 | 11.70649 | 36171 ft | 425 kts | 275° |
| 2026-04-27 10:55 | 40.80228 | 11.62820 | 36171 ft | 425 kts | 276° |
| 2026-04-27 10:55 | 40.80791 | 11.55094 | 36170 ft | 420 kts | 275° |
| 2026-04-27 10:56 | 40.81310 | 11.47434 | 36171 ft | 418 kts | 275° |
| 2026-04-27 10:56 | 40.81564 | 11.43605 | 36005 ft | 421 kts | 275° |
| 2026-04-27 10:56 | 40.81817 | 11.39768 | 35712 ft | 417 kts | 275° |
| 2026-04-27 10:56 | 40.82064 | 11.36006 | 35286 ft | 413 kts | 275° |
| 2026-04-27 10:57 | 40.82310 | 11.32235 | 34855 ft | 410 kts | 275° |
| 2026-04-27 10:57 | 40.82555 | 11.28503 | 34430 ft | 407 kts | 275° |
| 2026-04-27 10:57 | 40.82799 | 11.24783 | 34007 ft | 404 kts | 275° |
| 2026-04-27 10:57 | 40.82908 | 11.21081 | 33589 ft | 402 kts | 269° |
| 2026-04-27 10:58 | 40.82788 | 11.17413 | 33177 ft | 399 kts | 266° |
| 2026-04-27 10:58 | 40.82578 | 11.13773 | 32767 ft | 396 kts | 265° |
| 2026-04-27 10:58 | 40.82359 | 11.10153 | 32362 ft | 394 kts | 265° |
| 2026-04-27 10:58 | 40.82143 | 11.06573 | 31962 ft | 391 kts | 265° |
| 2026-04-27 10:59 | 40.81929 | 11.02990 | 31565 ft | 389 kts | 266° |
| 2026-04-27 10:59 | 40.81719 | 10.99489 | 31177 ft | 387 kts | 266° |
| 2026-04-27 10:59 | 40.81509 | 10.95966 | 30790 ft | 385 kts | 266° |
| 2026-04-27 11:00 | 40.81088 | 10.88957 | 30025 ft | 380 kts | 266° |
| 2026-04-27 11:00 | 40.80879 | 10.85485 | 29645 ft | 379 kts | 266° |
| 2026-04-27 11:00 | 40.80670 | 10.82027 | 29261 ft | 376 kts | 265° |
| 2026-04-27 11:00 | 40.80463 | 10.78597 | 28876 ft | 374 kts | 265° |
| 2026-04-27 11:01 | 40.80266 | 10.75175 | 28490 ft | 372 kts | 266° |
| 2026-04-27 11:01 | 40.80087 | 10.71777 | 28105 ft | 370 kts | 266° |
| 2026-04-27 11:01 | 40.79899 | 10.68394 | 27720 ft | 369 kts | 266° |
| 2026-04-27 11:01 | 40.79705 | 10.65027 | 27337 ft | 367 kts | 265° |
| 2026-04-27 11:02 | 40.79507 | 10.61676 | 26954 ft | 365 kts | 265° |
| 2026-04-27 11:02 | 40.79308 | 10.58347 | 26573 ft | 363 kts | 265° |
| 2026-04-27 11:02 | 40.79117 | 10.55023 | 26191 ft | 361 kts | 266° |
| 2026-04-27 11:02 | 40.78936 | 10.51721 | 25812 ft | 360 kts | 265° |
| 2026-04-27 11:03 | 40.78743 | 10.48447 | 25434 ft | 358 kts | 265° |
| 2026-04-27 11:03 | 40.78542 | 10.45179 | 25055 ft | 356 kts | 265° |
| 2026-04-27 11:03 | 40.78337 | 10.41926 | 24676 ft | 355 kts | 265° |
| 2026-04-27 11:03 | 40.78133 | 10.38718 | 24303 ft | 353 kts | 265° |
| 2026-04-27 11:04 | 40.77925 | 10.35499 | 23925 ft | 352 kts | 265° |
| 2026-04-27 11:04 | 40.77718 | 10.32290 | 23551 ft | 350 kts | 265° |
| 2026-04-27 11:04 | 40.77510 | 10.29100 | 23177 ft | 348 kts | 265° |
| 2026-04-27 11:04 | 40.77304 | 10.25930 | 22806 ft | 347 kts | 265° |
| 2026-04-27 11:05 | 40.77097 | 10.22767 | 22436 ft | 345 kts | 265° |
| 2026-04-27 11:05 | 40.76892 | 10.19617 | 22067 ft | 344 kts | 265° |
| 2026-04-27 11:05 | 40.76687 | 10.16473 | 21699 ft | 342 kts | 265° |
| 2026-04-27 11:05 | 40.76484 | 10.13348 | 21333 ft | 341 kts | 265° |
| 2026-04-27 11:06 | 40.76295 | 10.10245 | 20970 ft | 339 kts | 265° |
| 2026-04-27 11:06 | 40.76101 | 10.07150 | 20607 ft | 338 kts | 265° |
| 2026-04-27 11:06 | 40.75902 | 10.04066 | 20246 ft | 336 kts | 265° |
| 2026-04-27 11:06 | 40.75702 | 10.00994 | 19886 ft | 335 kts | 265° |
| 2026-04-27 11:07 | 40.75503 | 9.97945 | 19527 ft | 333 kts | 265° |
| 2026-04-27 11:07 | 40.75307 | 9.94947 | 19174 ft | 332 kts | 265° |
| 2026-04-27 11:07 | 40.75056 | 9.91926 | 18818 ft | 330 kts | 260° |
| 2026-04-27 11:07 | 40.74557 | 9.88979 | 18465 ft | 329 kts | 254° |
| 2026-04-27 11:08 | 40.73885 | 9.86109 | 18114 ft | 327 kts | 251° |
| 2026-04-27 11:08 | 40.73152 | 9.83269 | 17763 ft | 326 kts | 251° |
| 2026-04-27 11:08 | 40.72424 | 9.80449 | 17414 ft | 324 kts | 251° |
| 2026-04-27 11:08 | 40.71704 | 9.77635 | 17067 ft | 323 kts | 251° |
| 2026-04-27 11:09 | 40.70990 | 9.74834 | 16720 ft | 322 kts | 251° |
| 2026-04-27 11:09 | 40.70282 | 9.72046 | 16375 ft | 320 kts | 251° |
| 2026-04-27 11:09 | 40.69578 | 9.69269 | 16032 ft | 319 kts | 251° |
| 2026-04-27 11:09 | 40.68878 | 9.66507 | 15690 ft | 317 kts | 251° |
| 2026-04-27 11:10 | 40.68182 | 9.63758 | 15350 ft | 316 kts | 251° |
| 2026-04-27 11:10 | 40.67487 | 9.61015 | 15010 ft | 314 kts | 251° |
| 2026-04-27 11:10 | 40.66794 | 9.58278 | 14574 ft | 316 kts | 251° |
| 2026-04-27 11:10 | 40.66096 | 9.55524 | 14176 ft | 316 kts | 251° |
| 2026-04-27 11:11 | 40.65421 | 9.52771 | 13826 ft | 315 kts | 252° |
| 2026-04-27 11:11 | 40.64766 | 9.50041 | 13475 ft | 307 kts | 252° |
| 2026-04-27 11:11 | 40.64124 | 9.47436 | 13148 ft | 292 kts | 251° |
| 2026-04-27 11:11 | 40.63505 | 9.44958 | 12837 ft | 278 kts | 251° |
| 2026-04-27 11:12 | 40.62892 | 9.42529 | 12546 ft | 284 kts | 251° |
| 2026-04-27 11:12 | 40.62256 | 9.40025 | 12230 ft | 292 kts | 251° |
| 2026-04-27 11:12 | 40.61606 | 9.37475 | 11906 ft | 296 kts | 251° |
| 2026-04-27 11:12 | 40.60948 | 9.34900 | 11578 ft | 297 kts | 251° |
| 2026-04-27 11:13 | 40.60288 | 9.32323 | 11247 ft | 296 kts | 251° |
| 2026-04-27 11:13 | 40.59639 | 9.29791 | 10921 ft | 296 kts | 251° |
| 2026-04-27 11:13 | 40.58981 | 9.27229 | 10588 ft | 295 kts | 251° |
| 2026-04-27 11:13 | 40.58325 | 9.24673 | 10253 ft | 295 kts | 251° |
| 2026-04-27 11:14 | 40.57675 | 9.22145 | 10095 ft | 288 kts | 251° |
| 2026-04-27 11:14 | 40.57046 | 9.19692 | 10016 ft | 278 kts | 251° |
| 2026-04-27 11:14 | 40.56441 | 9.17313 | 9937 ft | 269 kts | 253° |
| 2026-04-27 11:14 | 40.56253 | 9.14921 | 9849 ft | 261 kts | 277° |
| 2026-04-27 11:15 | 40.56858 | 9.12729 | 9675 ft | 256 kts | 302° |
| 2026-04-27 11:15 | 40.58122 | 9.11080 | 9340 ft | 259 kts | 326° |
| 2026-04-27 11:15 | 40.59684 | 9.09907 | 9067 ft | 258 kts | 328° |
| 2026-04-27 11:15 | 40.61204 | 9.08640 | 8783 ft | 258 kts | 325° |
| 2026-04-27 11:16 | 40.62678 | 9.07295 | 8504 ft | 258 kts | 324° |
| 2026-04-27 11:16 | 40.64140 | 9.05931 | 8290 ft | 255 kts | 324° |
| 2026-04-27 11:16 | 40.65565 | 9.04611 | 8148 ft | 249 kts | 327° |
| 2026-04-27 11:16 | 40.67155 | 9.03828 | 7985 ft | 243 kts | 353° |
| 2026-04-27 11:17 | 40.68807 | 9.04096 | 7749 ft | 241 kts | 21° |
| 2026-04-27 11:17 | 40.70165 | 9.05347 | 7494 ft | 239 kts | 49° |
| 2026-04-27 11:17 | 40.70907 | 9.07276 | 7234 ft | 238 kts | 77° |
| 2026-04-27 11:17 | 40.70951 | 9.09439 | 6989 ft | 236 kts | 96° |
| 2026-04-27 11:18 | 40.70535 | 9.11507 | 6747 ft | 233 kts | 109° |
| 2026-04-27 11:18 | 40.70254 | 9.13598 | 6468 ft | 233 kts | 86° |
| 2026-04-27 11:18 | 40.70680 | 9.15644 | 6194 ft | 233 kts | 65° |
| 2026-04-27 11:18 | 40.71521 | 9.17472 | 5922 ft | 234 kts | 56° |
| 2026-04-27 11:19 | 40.72464 | 9.19225 | 5645 ft | 234 kts | 55° |
| 2026-04-27 11:19 | 40.73406 | 9.20972 | 5370 ft | 234 kts | 55° |
| 2026-04-27 11:19 | 40.74348 | 9.22724 | 5099 ft | 234 kts | 55° |
| 2026-04-27 11:19 | 40.75275 | 9.24426 | 4851 ft | 234 kts | 54° |
| 2026-04-27 11:20 | 40.76243 | 9.26164 | 4553 ft | 229 kts | 54° |
| 2026-04-27 11:20 | 40.77156 | 9.27810 | 4300 ft | 217 kts | 54° |
| 2026-04-27 11:20 | 40.78013 | 9.29361 | 4066 ft | 202 kts | 54° |
| 2026-04-27 11:20 | 40.78814 | 9.30810 | 3847 ft | 188 kts | 54° |
| 2026-04-27 11:21 | 40.79555 | 9.32155 | 3762 ft | 179 kts | 55° |
| 2026-04-27 11:21 | 40.80290 | 9.33483 | 3723 ft | 181 kts | 55° |
| 2026-04-27 11:21 | 40.81021 | 9.34857 | 3468 ft | 183 kts | 56° |
| 2026-04-27 11:21 | 40.81731 | 9.36210 | 3176 ft | 176 kts | 56° |
| 2026-04-27 11:22 | 40.82414 | 9.37514 | 2879 ft | 169 kts | 57° |
| 2026-04-27 11:22 | 40.83065 | 9.38761 | 2613 ft | 160 kts | 57° |
| 2026-04-27 11:22 | 40.83683 | 9.39943 | 2367 ft | 153 kts | 56° |
| 2026-04-27 11:22 | 40.84086 | 9.40714 | 2210 ft | 150 kts | 56° |
| 2026-04-27 11:23 | 40.84669 | 9.41830 | 2011 ft | 144 kts | 56° |
| 2026-04-27 11:23 | 40.85230 | 9.42903 | 1781 ft | 142 kts | 56° |
| 2026-04-27 11:23 | 40.85790 | 9.43974 | 1565 ft | 141 kts | 56° |
| 2026-04-27 11:23 | 40.86353 | 9.45050 | 1336 ft | 145 kts | 56° |
| 2026-04-27 11:24 | 40.86918 | 9.46131 | 1114 ft | 144 kts | 56° |
| 2026-04-27 11:24 | 40.87483 | 9.47211 | 883 ft | 143 kts | 56° |
| 2026-04-27 11:24 | 40.88046 | 9.48276 | 653 ft | 140 kts | 55° |
| 2026-04-27 11:24 | 40.88601 | 9.49343 | 369 ft | 138 kts | 56° |
| 2026-04-27 11:25 | 40.89141 | 9.50370 | 148 ft | 134 kts | 56° |
| 2026-04-27 11:25 | 40.89654 | 9.51354 | 47 ft | 123 kts | 55° |
| 2026-04-27 11:25 | 40.90041 | 9.52101 | 45 ft | 70 kts | 55° |
| 2026-04-27 11:25 | 40.90249 | 9.52499 | 45 ft | 37 kts | 55° |
| 2026-04-27 11:26 | 40.90373 | 9.52691 | 45 ft | 17 kts | 5° |
| 2026-04-27 11:26 | 40.90448 | 9.52608 | 45 ft | 16 kts | 274° |
| 2026-04-27 11:26 | 40.90437 | 9.52470 | 45 ft | 15 kts | 240° |
| 2026-04-27 11:26 | 40.90380 | 9.52363 | 45 ft | 14 kts | 236° |
| 2026-04-27 11:27 | 40.90328 | 9.52261 | 45 ft | 13 kts | 235° |
| 2026-04-27 11:27 | 40.90278 | 9.52165 | 45 ft | 12 kts | 236° |
| 2026-04-27 11:27 | 40.90230 | 9.52072 | 45 ft | 12 kts | 236° |
| 2026-04-27 11:27 | 40.90183 | 9.51982 | 45 ft | 12 kts | 236° |
| 2026-04-27 11:28 | 40.90180 | 9.51884 | 45 ft | 11 kts | 280° |
| 2026-04-27 11:28 | 40.90217 | 9.51801 | 45 ft | 11 kts | 315° |
| 2026-04-27 11:28 | 40.90233 | 9.51736 | 45 ft | 6 kts | 323° |
| 2026-04-27 11:28 | 40.90258 | 9.51714 | 45 ft | 3 kts | 326° |
| 2026-04-27 11:29 | 40.90261 | 9.51711 | 45 ft | 1 kts | 326° |
| 2026-04-27 11:29 | 40.90266 | 9.51707 | 45 ft | 1 kts | 326° |
| 2026-04-27 11:29 | 40.90266 | 9.51706 | 45 ft | 0 kts | 326° |
| 2026-04-27 11:30 | 40.90267 | 9.51706 | 45 ft | 0 kts | 326° |
| 2026-04-27 11:30 | 40.90263 | 9.51709 | 45 ft | 0 kts | 326° |